sensor_id;sensor_type;location;lat;lon;timestamp;P1;durP1;ratioP1;P2;durP2;ratioP2
42364;SDS011;28498;54.400;18.566;2023-07-16T00:00:27;9.73;;;4.75;;
42364;SDS011;28498;54.400;18.566;2023-07-16T00:02:54;6.03;;;4.70;;
42364;SDS011;28498;54.400;18.566;2023-07-16T00:05:22;9.02;;;4.82;;
42364;SDS011;28498;54.400;18.566;2023-07-16T00:07:49;8.70;;;5.40;;
42364;SDS011;28498;54.400;18.566;2023-07-16T00:10:16;8.93;;;4.90;;
42364;SDS011;28498;54.400;18.566;2023-07-16T00:12:43;8.07;;;4.50;;
42364;SDS011;28498;54.400;18.566;2023-07-16T00:15:10;6.75;;;4.68;;
42364;SDS011;28498;54.400;18.566;2023-07-16T00:17:37;7.65;;;5.40;;
42364;SDS011;28498;54.400;18.566;2023-07-16T00:20:04;6.85;;;5.35;;
42364;SDS011;28498;54.400;18.566;2023-07-16T00:22:32;7.13;;;5.22;;
42364;SDS011;28498;54.400;18.566;2023-07-16T00:24:59;7.07;;;4.70;;
42364;SDS011;28498;54.400;18.566;2023-07-16T00:27:26;5.90;;;4.88;;
42364;SDS011;28498;54.400;18.566;2023-07-16T00:29:53;8.85;;;5.22;;
42364;SDS011;28498;54.400;18.566;2023-07-16T00:32:20;6.80;;;5.15;;
42364;SDS011;28498;54.400;18.566;2023-07-16T00:34:47;12.05;;;5.85;;
42364;SDS011;28498;54.400;18.566;2023-07-16T00:37:14;7.70;;;5.22;;
42364;SDS011;28498;54.400;18.566;2023-07-16T00:39:41;11.20;;;4.95;;
42364;SDS011;28498;54.400;18.566;2023-07-16T00:42:08;8.23;;;4.80;;
42364;SDS011;28498;54.400;18.566;2023-07-16T00:44:35;7.55;;;4.85;;
42364;SDS011;28498;54.400;18.566;2023-07-16T00:47:02;8.50;;;4.57;;
42364;SDS011;28498;54.400;18.566;2023-07-16T00:49:30;7.93;;;5.47;;
42364;SDS011;28498;54.400;18.566;2023-07-16T00:51:58;6.55;;;5.03;;
42364;SDS011;28498;54.400;18.566;2023-07-16T00:54:26;6.07;;;4.70;;
42364;SDS011;28498;54.400;18.566;2023-07-16T00:56:56;8.15;;;5.45;;
42364;SDS011;28498;54.400;18.566;2023-07-16T00:59:23;7.45;;;5.43;;
42364;SDS011;28498;54.400;18.566;2023-07-16T01:01:50;8.52;;;5.47;;
42364;SDS011;28498;54.400;18.566;2023-07-16T01:04:17;7.63;;;5.22;;
42364;SDS011;28498;54.400;18.566;2023-07-16T01:06:45;8.25;;;4.78;;
42364;SDS011;28498;54.400;18.566;2023-07-16T01:09:17;9.32;;;5.43;;
42364;SDS011;28498;54.400;18.566;2023-07-16T01:11:46;6.15;;;4.80;;
42364;SDS011;28498;54.400;18.566;2023-07-16T01:14:14;10.55;;;5.72;;
42364;SDS011;28498;54.400;18.566;2023-07-16T01:16:43;7.38;;;5.15;;
42364;SDS011;28498;54.400;18.566;2023-07-16T01:19:10;8.80;;;5.57;;
42364;SDS011;28498;54.400;18.566;2023-07-16T01:26:58;6.93;;;5.68;;
42364;SDS011;28498;54.400;18.566;2023-07-16T01:29:51;7.28;;;5.35;;
42364;SDS011;28498;54.400;18.566;2023-07-16T01:32:22;8.15;;;5.47;;
42364;SDS011;28498;54.400;18.566;2023-07-16T01:34:51;6.75;;;5.50;;
42364;SDS011;28498;54.400;18.566;2023-07-16T01:37:19;8.93;;;6.63;;
42364;SDS011;28498;54.400;18.566;2023-07-16T01:39:46;7.18;;;5.40;;
42364;SDS011;28498;54.400;18.566;2023-07-16T01:42:13;9.43;;;5.65;;
42364;SDS011;28498;54.400;18.566;2023-07-16T01:44:40;8.75;;;6.80;;
42364;SDS011;28498;54.400;18.566;2023-07-16T01:49:35;8.02;;;5.95;;
42364;SDS011;28498;54.400;18.566;2023-07-16T01:52:02;8.88;;;5.43;;
42364;SDS011;28498;54.400;18.566;2023-07-16T01:54:30;7.00;;;5.57;;
42364;SDS011;28498;54.400;18.566;2023-07-16T01:56:57;7.85;;;5.50;;
42364;SDS011;28498;54.400;18.566;2023-07-16T01:59:24;7.57;;;5.57;;
42364;SDS011;28498;54.400;18.566;2023-07-16T02:01:51;7.03;;;5.57;;
42364;SDS011;28498;54.400;18.566;2023-07-16T02:04:19;9.88;;;5.90;;
42364;SDS011;28498;54.400;18.566;2023-07-16T02:06:47;8.15;;;5.53;;
42364;SDS011;28498;54.400;18.566;2023-07-16T02:09:17;7.90;;;6.07;;
42364;SDS011;28498;54.400;18.566;2023-07-16T02:11:44;8.07;;;6.32;;
42364;SDS011;28498;54.400;18.566;2023-07-16T02:14:11;9.63;;;6.10;;
42364;SDS011;28498;54.400;18.566;2023-07-16T02:16:39;8.45;;;6.68;;
42364;SDS011;28498;54.400;18.566;2023-07-16T02:19:06;10.52;;;7.10;;
42364;SDS011;28498;54.400;18.566;2023-07-16T02:21:33;10.13;;;8.10;;
42364;SDS011;28498;54.400;18.566;2023-07-16T02:24:00;11.90;;;8.60;;
42364;SDS011;28498;54.400;18.566;2023-07-16T02:26:27;12.48;;;9.45;;
42364;SDS011;28498;54.400;18.566;2023-07-16T02:28:54;11.50;;;8.65;;
42364;SDS011;28498;54.400;18.566;2023-07-16T02:31:21;12.93;;;7.40;;
42364;SDS011;28498;54.400;18.566;2023-07-16T02:33:48;10.80;;;7.32;;
42364;SDS011;28498;54.400;18.566;2023-07-16T02:36:15;10.45;;;7.68;;
42364;SDS011;28498;54.400;18.566;2023-07-16T02:38:42;9.18;;;7.50;;
42364;SDS011;28498;54.400;18.566;2023-07-16T02:41:09;9.88;;;6.90;;
42364;SDS011;28498;54.400;18.566;2023-07-16T02:43:36;10.43;;;6.70;;
42364;SDS011;28498;54.400;18.566;2023-07-16T02:46:04;10.23;;;6.45;;
42364;SDS011;28498;54.400;18.566;2023-07-16T02:48:31;10.00;;;6.85;;
42364;SDS011;28498;54.400;18.566;2023-07-16T02:50:58;9.35;;;6.00;;
42364;SDS011;28498;54.400;18.566;2023-07-16T02:53:25;7.50;;;6.35;;
42364;SDS011;28498;54.400;18.566;2023-07-16T02:55:52;8.43;;;6.07;;
42364;SDS011;28498;54.400;18.566;2023-07-16T02:58:19;8.23;;;6.07;;
42364;SDS011;28498;54.400;18.566;2023-07-16T03:00:46;9.82;;;6.32;;
42364;SDS011;28498;54.400;18.566;2023-07-16T03:03:13;11.07;;;5.57;;
42364;SDS011;28498;54.400;18.566;2023-07-16T03:05:40;9.70;;;6.00;;
42364;SDS011;28498;54.400;18.566;2023-07-16T03:08:07;7.57;;;5.65;;
42364;SDS011;28498;54.400;18.566;2023-07-16T03:10:34;8.52;;;6.13;;
42364;SDS011;28498;54.400;18.566;2023-07-16T03:13:01;8.65;;;5.57;;
42364;SDS011;28498;54.400;18.566;2023-07-16T03:15:28;11.27;;;6.47;;
42364;SDS011;28498;54.400;18.566;2023-07-16T03:17:56;7.22;;;5.72;;
42364;SDS011;28498;54.400;18.566;2023-07-16T03:20:23;11.05;;;5.65;;
42364;SDS011;28498;54.400;18.566;2023-07-16T03:22:50;7.95;;;5.95;;
42364;SDS011;28498;54.400;18.566;2023-07-16T03:25:17;6.90;;;5.47;;
42364;SDS011;28498;54.400;18.566;2023-07-16T03:27:44;8.63;;;5.82;;
42364;SDS011;28498;54.400;18.566;2023-07-16T03:30:11;9.13;;;5.70;;
42364;SDS011;28498;54.400;18.566;2023-07-16T03:32:38;7.03;;;5.65;;
42364;SDS011;28498;54.400;18.566;2023-07-16T03:35:18;10.20;;;5.30;;
42364;SDS011;28498;54.400;18.566;2023-07-16T03:37:47;8.52;;;5.90;;
42364;SDS011;28498;54.400;18.566;2023-07-16T03:40:16;8.27;;;6.05;;
42364;SDS011;28498;54.400;18.566;2023-07-16T03:42:44;10.48;;;5.93;;
42364;SDS011;28498;54.400;18.566;2023-07-16T03:45:11;8.90;;;6.32;;
42364;SDS011;28498;54.400;18.566;2023-07-16T03:47:38;9.18;;;5.40;;
42364;SDS011;28498;54.400;18.566;2023-07-16T03:50:05;7.03;;;5.45;;
42364;SDS011;28498;54.400;18.566;2023-07-16T03:52:33;8.93;;;6.55;;
42364;SDS011;28498;54.400;18.566;2023-07-16T03:55:00;7.13;;;5.30;;
42364;SDS011;28498;54.400;18.566;2023-07-16T03:57:30;7.85;;;5.68;;
42364;SDS011;28498;54.400;18.566;2023-07-16T03:59:57;9.75;;;5.80;;
42364;SDS011;28498;54.400;18.566;2023-07-16T04:02:24;8.57;;;5.63;;
42364;SDS011;28498;54.400;18.566;2023-07-16T04:04:51;9.38;;;5.63;;
42364;SDS011;28498;54.400;18.566;2023-07-16T04:07:18;7.13;;;5.50;;
42364;SDS011;28498;54.400;18.566;2023-07-16T04:09:45;8.65;;;6.00;;
42364;SDS011;28498;54.400;18.566;2023-07-16T04:12:13;9.57;;;6.20;;
42364;SDS011;28498;54.400;18.566;2023-07-16T04:14:40;7.32;;;4.97;;
42364;SDS011;28498;54.400;18.566;2023-07-16T04:17:07;6.93;;;4.95;;
42364;SDS011;28498;54.400;18.566;2023-07-16T04:19:34;8.45;;;5.50;;
42364;SDS011;28498;54.400;18.566;2023-07-16T04:22:01;6.90;;;4.85;;
42364;SDS011;28498;54.400;18.566;2023-07-16T04:24:28;6.72;;;4.90;;
42364;SDS011;28498;54.400;18.566;2023-07-16T04:26:55;7.55;;;5.15;;
42364;SDS011;28498;54.400;18.566;2023-07-16T04:29:24;8.43;;;5.32;;
42364;SDS011;28498;54.400;18.566;2023-07-16T04:31:51;6.93;;;5.10;;
42364;SDS011;28498;54.400;18.566;2023-07-16T04:34:18;4.88;;;4.30;;
42364;SDS011;28498;54.400;18.566;2023-07-16T04:36:45;7.32;;;5.05;;
42364;SDS011;28498;54.400;18.566;2023-07-16T04:39:12;7.15;;;4.75;;
42364;SDS011;28498;54.400;18.566;2023-07-16T04:41:39;6.68;;;4.88;;
42364;SDS011;28498;54.400;18.566;2023-07-16T04:44:06;7.60;;;4.80;;
42364;SDS011;28498;54.400;18.566;2023-07-16T04:46:33;7.55;;;4.97;;
42364;SDS011;28498;54.400;18.566;2023-07-16T04:49:00;8.88;;;5.70;;
42364;SDS011;28498;54.400;18.566;2023-07-16T04:51:28;6.72;;;5.00;;
42364;SDS011;28498;54.400;18.566;2023-07-16T04:53:55;7.28;;;4.30;;
42364;SDS011;28498;54.400;18.566;2023-07-16T04:56:22;6.45;;;4.93;;
42364;SDS011;28498;54.400;18.566;2023-07-16T04:58:49;9.05;;;4.70;;
42364;SDS011;28498;54.400;18.566;2023-07-16T05:01:15;6.10;;;5.30;;
42364;SDS011;28498;54.400;18.566;2023-07-16T05:03:42;7.97;;;5.32;;
42364;SDS011;28498;54.400;18.566;2023-07-16T05:06:09;7.13;;;5.20;;
42364;SDS011;28498;54.400;18.566;2023-07-16T05:08:37;6.85;;;5.18;;
42364;SDS011;28498;54.400;18.566;2023-07-16T05:11:04;7.95;;;5.15;;
42364;SDS011;28498;54.400;18.566;2023-07-16T05:13:31;7.38;;;5.20;;
42364;SDS011;28498;54.400;18.566;2023-07-16T05:15:58;9.57;;;5.40;;
42364;SDS011;28498;54.400;18.566;2023-07-16T05:18:25;7.25;;;5.50;;
42364;SDS011;28498;54.400;18.566;2023-07-16T05:20:52;6.60;;;5.25;;
42364;SDS011;28498;54.400;18.566;2023-07-16T05:23:19;11.65;;;6.38;;
42364;SDS011;28498;54.400;18.566;2023-07-16T05:25:49;6.97;;;5.38;;
42364;SDS011;28498;54.400;18.566;2023-07-16T05:28:17;6.63;;;5.28;;
42364;SDS011;28498;54.400;18.566;2023-07-16T05:30:45;7.57;;;5.30;;
42364;SDS011;28498;54.400;18.566;2023-07-16T05:33:12;10.05;;;6.63;;
42364;SDS011;28498;54.400;18.566;2023-07-16T05:35:39;7.47;;;5.35;;
42364;SDS011;28498;54.400;18.566;2023-07-16T05:38:06;6.70;;;5.15;;
42364;SDS011;28498;54.400;18.566;2023-07-16T05:40:33;6.63;;;5.78;;
42364;SDS011;28498;54.400;18.566;2023-07-16T05:43:01;7.78;;;6.10;;
42364;SDS011;28498;54.400;18.566;2023-07-16T05:45:28;14.40;;;6.63;;
42364;SDS011;28498;54.400;18.566;2023-07-16T05:47:55;8.57;;;5.75;;
42364;SDS011;28498;54.400;18.566;2023-07-16T05:50:22;15.48;;;6.90;;
42364;SDS011;28498;54.400;18.566;2023-07-16T05:52:49;8.57;;;5.63;;
42364;SDS011;28498;54.400;18.566;2023-07-16T05:55:17;8.05;;;5.95;;
42364;SDS011;28498;54.400;18.566;2023-07-16T05:57:43;7.57;;;5.80;;
42364;SDS011;28498;54.400;18.566;2023-07-16T06:00:11;6.95;;;5.97;;
42364;SDS011;28498;54.400;18.566;2023-07-16T06:02:38;10.15;;;5.70;;
42364;SDS011;28498;54.400;18.566;2023-07-16T06:05:05;6.20;;;5.57;;
42364;SDS011;28498;54.400;18.566;2023-07-16T06:07:32;6.93;;;5.57;;
42364;SDS011;28498;54.400;18.566;2023-07-16T06:09:59;10.52;;;6.00;;
42364;SDS011;28498;54.400;18.566;2023-07-16T06:12:26;8.05;;;5.82;;
42364;SDS011;28498;54.400;18.566;2023-07-16T06:14:54;7.35;;;5.55;;
42364;SDS011;28498;54.400;18.566;2023-07-16T06:17:21;8.98;;;5.35;;
42364;SDS011;28498;54.400;18.566;2023-07-16T06:19:48;7.65;;;5.32;;
42364;SDS011;28498;54.400;18.566;2023-07-16T06:22:17;8.70;;;5.95;;
42364;SDS011;28498;54.400;18.566;2023-07-16T06:24:44;9.30;;;5.57;;
42364;SDS011;28498;54.400;18.566;2023-07-16T06:27:11;7.07;;;5.15;;
42364;SDS011;28498;54.400;18.566;2023-07-16T06:29:38;7.78;;;4.93;;
42364;SDS011;28498;54.400;18.566;2023-07-16T06:32:05;6.60;;;5.40;;
42364;SDS011;28498;54.400;18.566;2023-07-16T06:34:33;8.77;;;5.18;;
42364;SDS011;28498;54.400;18.566;2023-07-16T06:37:00;7.95;;;5.50;;
42364;SDS011;28498;54.400;18.566;2023-07-16T06:39:27;6.28;;;4.68;;
42364;SDS011;28498;54.400;18.566;2023-07-16T06:41:54;7.43;;;5.13;;
42364;SDS011;28498;54.400;18.566;2023-07-16T06:44:22;7.05;;;5.53;;
42364;SDS011;28498;54.400;18.566;2023-07-16T06:46:49;9.77;;;4.85;;
42364;SDS011;28498;54.400;18.566;2023-07-16T06:49:16;7.35;;;5.35;;
42364;SDS011;28498;54.400;18.566;2023-07-16T06:51:43;7.40;;;5.43;;
42364;SDS011;28498;54.400;18.566;2023-07-16T06:54:10;10.45;;;4.88;;
42364;SDS011;28498;54.400;18.566;2023-07-16T06:56:37;7.00;;;5.38;;
42364;SDS011;28498;54.400;18.566;2023-07-16T06:59:04;8.38;;;5.40;;
42364;SDS011;28498;54.400;18.566;2023-07-16T07:01:31;11.90;;;5.63;;
42364;SDS011;28498;54.400;18.566;2023-07-16T07:03:58;8.55;;;5.45;;
42364;SDS011;28498;54.400;18.566;2023-07-16T07:06:26;5.93;;;4.82;;
42364;SDS011;28498;54.400;18.566;2023-07-16T07:08:53;6.68;;;4.60;;
42364;SDS011;28498;54.400;18.566;2023-07-16T07:11:21;6.55;;;4.22;;
42364;SDS011;28498;54.400;18.566;2023-07-16T07:13:48;9.85;;;4.63;;
42364;SDS011;28498;54.400;18.566;2023-07-16T07:16:16;9.18;;;4.47;;
42364;SDS011;28498;54.400;18.566;2023-07-16T07:18:44;9.13;;;4.53;;
42364;SDS011;28498;54.400;18.566;2023-07-16T07:21:11;6.15;;;4.68;;
42364;SDS011;28498;54.400;18.566;2023-07-16T07:23:38;5.93;;;4.50;;
42364;SDS011;28498;54.400;18.566;2023-07-16T07:26:06;7.68;;;4.30;;
42364;SDS011;28498;54.400;18.566;2023-07-16T07:28:33;6.32;;;4.90;;
42364;SDS011;28498;54.400;18.566;2023-07-16T07:31:00;6.80;;;4.57;;
42364;SDS011;28498;54.400;18.566;2023-07-16T07:33:27;8.90;;;5.00;;
42364;SDS011;28498;54.400;18.566;2023-07-16T07:35:55;5.72;;;4.97;;
42364;SDS011;28498;54.400;18.566;2023-07-16T07:38:22;8.10;;;5.00;;
42364;SDS011;28498;54.400;18.566;2023-07-16T07:40:49;6.68;;;4.65;;
42364;SDS011;28498;54.400;18.566;2023-07-16T07:43:16;5.38;;;4.40;;
42364;SDS011;28498;54.400;18.566;2023-07-16T07:45:43;8.35;;;4.97;;
42364;SDS011;28498;54.400;18.566;2023-07-16T07:48:10;6.25;;;4.72;;
42364;SDS011;28498;54.400;18.566;2023-07-16T07:50:38;5.63;;;4.43;;
42364;SDS011;28498;54.400;18.566;2023-07-16T07:53:05;8.52;;;5.07;;
42364;SDS011;28498;54.400;18.566;2023-07-16T07:55:33;7.57;;;4.88;;
42364;SDS011;28498;54.400;18.566;2023-07-16T07:58:01;7.28;;;4.97;;
42364;SDS011;28498;54.400;18.566;2023-07-16T08:00:28;6.22;;;4.50;;
42364;SDS011;28498;54.400;18.566;2023-07-16T08:02:55;7.60;;;4.00;;
42364;SDS011;28498;54.400;18.566;2023-07-16T08:05:23;5.63;;;4.07;;
42364;SDS011;28498;54.400;18.566;2023-07-16T08:07:50;13.02;;;4.90;;
42364;SDS011;28498;54.400;18.566;2023-07-16T08:10:18;6.35;;;3.60;;
42364;SDS011;28498;54.400;18.566;2023-07-16T08:12:45;5.30;;;3.78;;
42364;SDS011;28498;54.400;18.566;2023-07-16T08:15:12;7.35;;;3.20;;
42364;SDS011;28498;54.400;18.566;2023-07-16T08:17:43;4.53;;;3.70;;
42364;SDS011;28498;54.400;18.566;2023-07-16T08:20:11;5.20;;;3.67;;
42364;SDS011;28498;54.400;18.566;2023-07-16T08:22:38;4.72;;;3.20;;
42364;SDS011;28498;54.400;18.566;2023-07-16T08:25:06;4.60;;;3.20;;
42364;SDS011;28498;54.400;18.566;2023-07-16T08:27:34;4.38;;;2.63;;
42364;SDS011;28498;54.400;18.566;2023-07-16T08:30:01;5.78;;;2.72;;
42364;SDS011;28498;54.400;18.566;2023-07-16T08:36:16;4.22;;;3.17;;
42364;SDS011;28498;54.400;18.566;2023-07-16T08:38:44;5.45;;;2.67;;
42364;SDS011;28498;54.400;18.566;2023-07-16T08:41:11;5.05;;;2.63;;
42364;SDS011;28498;54.400;18.566;2023-07-16T08:43:38;4.75;;;2.20;;
42364;SDS011;28498;54.400;18.566;2023-07-16T08:49:53;4.07;;;2.30;;
42364;SDS011;28498;54.400;18.566;2023-07-16T08:52:22;4.47;;;2.60;;
42364;SDS011;28498;54.400;18.566;2023-07-16T08:54:53;6.85;;;2.67;;
42364;SDS011;28498;54.400;18.566;2023-07-16T08:57:20;4.80;;;3.08;;
42364;SDS011;28498;54.400;18.566;2023-07-16T08:59:48;3.80;;;2.47;;
42364;SDS011;28498;54.400;18.566;2023-07-16T09:02:17;4.63;;;2.35;;
42364;SDS011;28498;54.400;18.566;2023-07-16T09:04:48;5.82;;;3.17;;
42364;SDS011;28498;54.400;18.566;2023-07-16T09:07:17;3.90;;;2.67;;
42364;SDS011;28498;54.400;18.566;2023-07-16T09:09:57;4.70;;;2.40;;
42364;SDS011;28498;54.400;18.566;2023-07-16T09:12:25;7.22;;;3.05;;
42364;SDS011;28498;54.400;18.566;2023-07-16T09:18:39;4.07;;;2.47;;
42364;SDS011;28498;54.400;18.566;2023-07-16T09:21:07;6.45;;;3.10;;
42364;SDS011;28498;54.400;18.566;2023-07-16T09:23:35;4.20;;;2.63;;
42364;SDS011;28498;54.400;18.566;2023-07-16T09:26:03;4.45;;;2.70;;
42364;SDS011;28498;54.400;18.566;2023-07-16T09:28:30;4.85;;;2.55;;
42364;SDS011;28498;54.400;18.566;2023-07-16T09:31:05;4.90;;;2.58;;
42364;SDS011;28498;54.400;18.566;2023-07-16T09:33:34;3.78;;;2.47;;
42364;SDS011;28498;54.400;18.566;2023-07-16T09:36:01;3.92;;;2.67;;
42364;SDS011;28498;54.400;18.566;2023-07-16T09:38:29;4.88;;;2.40;;
42364;SDS011;28498;54.400;18.566;2023-07-16T09:40:58;5.72;;;2.72;;
42364;SDS011;28498;54.400;18.566;2023-07-16T09:43:25;3.80;;;2.20;;
42364;SDS011;28498;54.400;18.566;2023-07-16T09:45:53;5.50;;;2.55;;
42364;SDS011;28498;54.400;18.566;2023-07-16T09:48:20;4.25;;;2.78;;
42364;SDS011;28498;54.400;18.566;2023-07-16T09:50:50;4.78;;;2.70;;
42364;SDS011;28498;54.400;18.566;2023-07-16T09:53:20;4.80;;;2.78;;
42364;SDS011;28498;54.400;18.566;2023-07-16T09:55:53;4.80;;;2.90;;
42364;SDS011;28498;54.400;18.566;2023-07-16T09:58:22;4.60;;;2.65;;
42364;SDS011;28498;54.400;18.566;2023-07-16T10:00:50;3.60;;;2.55;;
42364;SDS011;28498;54.400;18.566;2023-07-16T10:03:18;3.83;;;2.33;;
42364;SDS011;28498;54.400;18.566;2023-07-16T10:05:46;4.28;;;2.58;;
42364;SDS011;28498;54.400;18.566;2023-07-16T10:08:17;4.10;;;2.83;;
42364;SDS011;28498;54.400;18.566;2023-07-16T10:13:21;4.38;;;3.10;;
42364;SDS011;28498;54.400;18.566;2023-07-16T10:15:56;4.30;;;2.85;;
42364;SDS011;28498;54.400;18.566;2023-07-16T10:21:02;3.85;;;2.85;;
42364;SDS011;28498;54.400;18.566;2023-07-16T10:23:38;5.75;;;2.58;;
42364;SDS011;28498;54.400;18.566;2023-07-16T10:26:10;3.97;;;2.85;;
42364;SDS011;28498;54.400;18.566;2023-07-16T10:28:45;5.85;;;3.25;;
42364;SDS011;28498;54.400;18.566;2023-07-16T10:31:17;5.03;;;3.15;;
42364;SDS011;28498;54.400;18.566;2023-07-16T10:33:56;4.47;;;3.00;;
42364;SDS011;28498;54.400;18.566;2023-07-16T10:36:38;4.55;;;3.00;;
42364;SDS011;28498;54.400;18.566;2023-07-16T10:39:06;4.97;;;3.10;;
42364;SDS011;28498;54.400;18.566;2023-07-16T10:41:33;4.22;;;2.90;;
42364;SDS011;28498;54.400;18.566;2023-07-16T10:44:01;4.65;;;3.42;;
42364;SDS011;28498;54.400;18.566;2023-07-16T10:46:30;3.60;;;3.03;;
42364;SDS011;28498;54.400;18.566;2023-07-16T10:49:00;4.43;;;3.20;;
42364;SDS011;28498;54.400;18.566;2023-07-16T10:51:27;5.43;;;3.00;;
42364;SDS011;28498;54.400;18.566;2023-07-16T10:53:57;5.47;;;3.33;;
42364;SDS011;28498;54.400;18.566;2023-07-16T10:56:24;5.40;;;3.40;;
42364;SDS011;28498;54.400;18.566;2023-07-16T10:58:52;4.32;;;3.17;;
42364;SDS011;28498;54.400;18.566;2023-07-16T11:01:19;5.03;;;3.00;;
42364;SDS011;28498;54.400;18.566;2023-07-16T11:03:47;3.63;;;2.65;;
42364;SDS011;28498;54.400;18.566;2023-07-16T11:06:14;6.00;;;3.35;;
42364;SDS011;28498;54.400;18.566;2023-07-16T11:08:44;3.80;;;2.75;;
42364;SDS011;28498;54.400;18.566;2023-07-16T11:11:11;3.80;;;2.75;;
42364;SDS011;28498;54.400;18.566;2023-07-16T11:13:38;3.70;;;2.50;;
42364;SDS011;28498;54.400;18.566;2023-07-16T11:16:11;4.25;;;2.97;;
42364;SDS011;28498;54.400;18.566;2023-07-16T11:18:38;4.85;;;2.70;;
42364;SDS011;28498;54.400;18.566;2023-07-16T11:21:05;3.60;;;2.85;;
42364;SDS011;28498;54.400;18.566;2023-07-16T11:23:35;5.00;;;3.10;;
42364;SDS011;28498;54.400;18.566;2023-07-16T11:26:02;4.20;;;2.92;;
42364;SDS011;28498;54.400;18.566;2023-07-16T11:28:40;5.55;;;3.10;;
42364;SDS011;28498;54.400;18.566;2023-07-16T11:31:14;4.45;;;3.10;;
42364;SDS011;28498;54.400;18.566;2023-07-16T11:33:43;5.78;;;2.67;;
42364;SDS011;28498;54.400;18.566;2023-07-16T11:36:11;3.85;;;2.70;;
42364;SDS011;28498;54.400;18.566;2023-07-16T11:45:01;4.32;;;3.05;;
42364;SDS011;28498;54.400;18.566;2023-07-16T11:47:29;5.20;;;2.78;;
42364;SDS011;28498;54.400;18.566;2023-07-16T11:49:56;4.65;;;3.08;;
42364;SDS011;28498;54.400;18.566;2023-07-16T11:52:25;5.72;;;3.20;;
42364;SDS011;28498;54.400;18.566;2023-07-16T11:54:53;4.80;;;2.78;;
42364;SDS011;28498;54.400;18.566;2023-07-16T11:57:22;4.00;;;2.75;;
42364;SDS011;28498;54.400;18.566;2023-07-16T11:59:50;6.22;;;2.92;;
42364;SDS011;28498;54.400;18.566;2023-07-16T12:02:17;4.13;;;2.65;;
42364;SDS011;28498;54.400;18.566;2023-07-16T12:04:45;3.95;;;2.80;;
42364;SDS011;28498;54.400;18.566;2023-07-16T12:07:12;5.18;;;2.80;;
42364;SDS011;28498;54.400;18.566;2023-07-16T12:09:39;4.72;;;2.55;;
42364;SDS011;28498;54.400;18.566;2023-07-16T12:12:06;4.97;;;2.60;;
42364;SDS011;28498;54.400;18.566;2023-07-16T12:14:33;4.50;;;2.50;;
42364;SDS011;28498;54.400;18.566;2023-07-16T12:20:53;4.00;;;3.13;;
42364;SDS011;28498;54.400;18.566;2023-07-16T12:23:20;7.88;;;2.83;;
42364;SDS011;28498;54.400;18.566;2023-07-16T12:25:47;4.93;;;2.53;;
42364;SDS011;28498;54.400;18.566;2023-07-16T12:28:16;5.63;;;2.70;;
42364;SDS011;28498;54.400;18.566;2023-07-16T12:30:43;5.45;;;3.17;;
42364;SDS011;28498;54.400;18.566;2023-07-16T12:33:10;4.13;;;3.08;;
42364;SDS011;28498;54.400;18.566;2023-07-16T12:35:37;5.05;;;2.90;;
42364;SDS011;28498;54.400;18.566;2023-07-16T12:38:04;5.55;;;2.78;;
42364;SDS011;28498;54.400;18.566;2023-07-16T12:40:31;4.45;;;2.72;;
42364;SDS011;28498;54.400;18.566;2023-07-16T12:42:58;5.68;;;2.50;;
42364;SDS011;28498;54.400;18.566;2023-07-16T12:45:25;6.30;;;3.33;;
42364;SDS011;28498;54.400;18.566;2023-07-16T12:47:52;5.97;;;2.60;;
42364;SDS011;28498;54.400;18.566;2023-07-16T12:50:20;4.20;;;2.30;;
42364;SDS011;28498;54.400;18.566;2023-07-16T12:52:47;4.32;;;2.30;;
42364;SDS011;28498;54.400;18.566;2023-07-16T12:55:14;4.70;;;2.20;;
42364;SDS011;28498;54.400;18.566;2023-07-16T12:57:41;5.03;;;2.25;;
42364;SDS011;28498;54.400;18.566;2023-07-16T13:00:08;5.20;;;2.15;;
42364;SDS011;28498;54.400;18.566;2023-07-16T13:02:36;5.88;;;2.40;;
42364;SDS011;28498;54.400;18.566;2023-07-16T13:05:05;4.40;;;2.38;;
42364;SDS011;28498;54.400;18.566;2023-07-16T13:07:32;6.43;;;2.58;;
42364;SDS011;28498;54.400;18.566;2023-07-16T13:09:59;4.30;;;2.50;;
42364;SDS011;28498;54.400;18.566;2023-07-16T13:12:43;3.65;;;2.20;;
42364;SDS011;28498;54.400;18.566;2023-07-16T13:15:10;5.18;;;2.30;;
42364;SDS011;28498;54.400;18.566;2023-07-16T13:17:37;3.75;;;2.28;;
42364;SDS011;28498;54.400;18.566;2023-07-16T13:20:04;3.03;;;2.15;;
42364;SDS011;28498;54.400;18.566;2023-07-16T13:22:33;4.93;;;2.60;;
42364;SDS011;28498;54.400;18.566;2023-07-16T13:25:00;3.20;;;2.13;;
42364;SDS011;28498;54.400;18.566;2023-07-16T13:27:27;4.93;;;2.30;;
42364;SDS011;28498;54.400;18.566;2023-07-16T13:29:54;2.90;;;2.00;;
42364;SDS011;28498;54.400;18.566;2023-07-16T13:32:21;3.20;;;2.30;;
42364;SDS011;28498;54.400;18.566;2023-07-16T13:34:48;5.55;;;2.40;;
42364;SDS011;28498;54.400;18.566;2023-07-16T13:37:15;3.58;;;1.60;;
42364;SDS011;28498;54.400;18.566;2023-07-16T13:39:42;4.63;;;1.80;;
42364;SDS011;28498;54.400;18.566;2023-07-16T13:42:10;3.80;;;1.70;;
42364;SDS011;28498;54.400;18.566;2023-07-16T13:44:48;3.63;;;1.60;;
42364;SDS011;28498;54.400;18.566;2023-07-16T13:47:15;4.82;;;1.70;;
42364;SDS011;28498;54.400;18.566;2023-07-16T13:49:42;5.97;;;1.65;;
42364;SDS011;28498;54.400;18.566;2023-07-16T13:52:09;4.70;;;1.42;;
42364;SDS011;28498;54.400;18.566;2023-07-16T13:54:36;4.22;;;1.58;;
42364;SDS011;28498;54.400;18.566;2023-07-16T13:57:07;3.22;;;1.52;;
42364;SDS011;28498;54.400;18.566;2023-07-16T13:59:35;4.10;;;1.48;;
42364;SDS011;28498;54.400;18.566;2023-07-16T14:02:02;3.13;;;1.65;;
42364;SDS011;28498;54.400;18.566;2023-07-16T14:04:30;4.25;;;1.85;;
42364;SDS011;28498;54.400;18.566;2023-07-16T14:06:58;3.53;;;1.85;;
42364;SDS011;28498;54.400;18.566;2023-07-16T14:09:26;5.18;;;1.40;;
42364;SDS011;28498;54.400;18.566;2023-07-16T14:11:53;6.30;;;1.80;;
42364;SDS011;28498;54.400;18.566;2023-07-16T14:14:21;3.17;;;1.67;;
42364;SDS011;28498;54.400;18.566;2023-07-16T14:16:48;4.03;;;1.60;;
42364;SDS011;28498;54.400;18.566;2023-07-16T14:19:15;6.40;;;1.92;;
42364;SDS011;28498;54.400;18.566;2023-07-16T14:21:43;3.28;;;1.80;;
42364;SDS011;28498;54.400;18.566;2023-07-16T14:24:10;6.38;;;1.95;;
42364;SDS011;28498;54.400;18.566;2023-07-16T14:26:37;6.43;;;2.55;;
42364;SDS011;28498;54.400;18.566;2023-07-16T14:29:04;5.97;;;2.05;;
42364;SDS011;28498;54.400;18.566;2023-07-16T14:31:31;5.22;;;2.15;;
42364;SDS011;28498;54.400;18.566;2023-07-16T14:33:59;3.90;;;1.70;;
42364;SDS011;28498;54.400;18.566;2023-07-16T14:36:26;4.22;;;1.70;;
42364;SDS011;28498;54.400;18.566;2023-07-16T14:38:54;4.28;;;1.88;;
42364;SDS011;28498;54.400;18.566;2023-07-16T14:41:21;5.10;;;1.67;;
42364;SDS011;28498;54.400;18.566;2023-07-16T14:43:48;3.05;;;1.50;;
42364;SDS011;28498;54.400;18.566;2023-07-16T14:46:16;5.47;;;1.58;;
42364;SDS011;28498;54.400;18.566;2023-07-16T14:48:44;4.25;;;1.80;;
42364;SDS011;28498;54.400;18.566;2023-07-16T14:51:12;3.28;;;1.50;;
42364;SDS011;28498;54.400;18.566;2023-07-16T14:53:39;3.33;;;1.52;;
42364;SDS011;28498;54.400;18.566;2023-07-16T14:56:06;6.47;;;1.70;;
42364;SDS011;28498;54.400;18.566;2023-07-16T14:58:33;4.13;;;1.60;;
42364;SDS011;28498;54.400;18.566;2023-07-16T15:01:03;4.38;;;2.05;;
42364;SDS011;28498;54.400;18.566;2023-07-16T15:03:34;4.65;;;1.60;;
42364;SDS011;28498;54.400;18.566;2023-07-16T15:06:06;3.00;;;1.48;;
42364;SDS011;28498;54.400;18.566;2023-07-16T15:08:34;3.38;;;1.38;;
42364;SDS011;28498;54.400;18.566;2023-07-16T15:11:01;3.63;;;1.42;;